createdAt,value
2023-02-15T00:00:22.162Z,74.96
2023-02-15T00:01:22.125Z,74.90
2023-02-15T00:02:22.248Z,74.90
2023-02-15T00:03:22.161Z,74.91
2023-02-15T00:04:22.120Z,74.87
2023-02-15T00:05:22.080Z,74.90
2023-02-15T00:06:22.080Z,74.95
2023-02-15T00:07:22.059Z,74.97
2023-02-15T00:08:22.058Z,74.96
2023-02-15T00:09:22.021Z,74.96
2023-02-15T00:10:22.028Z,74.92
2023-02-15T00:11:22.029Z,74.97
2023-02-15T00:12:22.002Z,74.87
2023-02-15T00:13:21.983Z,74.51
2023-02-15T00:14:21.978Z,74.39
2023-02-15T00:15:21.945Z,74.65
2023-02-15T00:16:21.972Z,75.02
2023-02-15T00:17:21.934Z,75.09
2023-02-15T00:18:21.907Z,75.20
2023-02-15T00:19:21.914Z,75.23
2023-02-15T00:20:21.896Z,75.39
2023-02-15T00:21:21.875Z,75.38
2023-02-15T00:22:21.882Z,75.34
2023-02-15T00:23:21.840Z,75.32
2023-02-15T00:24:21.844Z,75.26
2023-02-15T00:25:21.822Z,74.96
2023-02-15T00:26:21.839Z,74.69
2023-02-15T00:27:21.795Z,74.45
2023-02-15T00:28:21.781Z,74.42
2023-02-15T00:29:21.798Z,74.34
2023-02-15T00:30:21.835Z,74.44
2023-02-15T00:31:21.846Z,74.31
2023-02-15T00:32:21.737Z,74.24
2023-02-15T00:33:21.716Z,74.23
2023-02-15T00:34:21.716Z,74.28
2023-02-15T00:35:21.703Z,74.37
2023-02-15T00:36:21.690Z,74.44
2023-02-15T00:37:21.664Z,74.49
2023-02-15T00:38:21.668Z,74.60
2023-02-15T00:39:21.642Z,74.64
2023-02-15T00:40:21.646Z,74.55
2023-02-15T00:41:21.629Z,74.38
2023-02-15T00:42:21.608Z,74.36
2023-02-15T00:43:21.588Z,74.60
2023-02-15T00:44:21.651Z,74.82
2023-02-15T00:45:21.569Z,75.14
2023-02-15T00:46:21.697Z,75.35
2023-02-15T00:47:21.543Z,75.24
2023-02-15T00:48:21.543Z,75.28
2023-02-15T00:49:21.517Z,75.41
2023-02-15T00:50:23.780Z,75.41
2023-02-15T00:51:21.497Z,75.45
2023-02-15T00:52:21.506Z,75.56
2023-02-15T00:53:21.461Z,75.61
2023-02-15T00:54:21.488Z,75.49
2023-02-15T00:55:21.436Z,75.36
2023-02-15T00:56:21.430Z,75.17
2023-02-15T00:57:21.429Z,75.02
2023-02-15T00:58:21.415Z,74.83
2023-02-15T00:59:21.411Z,74.56
2023-02-15T01:00:21.372Z,74.44
2023-02-15T01:01:21.446Z,74.54
2023-02-15T01:02:21.386Z,74.65
2023-02-15T01:03:21.357Z,74.94
2023-02-15T01:04:21.342Z,74.90
2023-02-15T01:05:21.314Z,74.82
2023-02-15T01:06:21.323Z,74.74
2023-02-15T01:07:21.308Z,74.78
2023-02-15T01:08:21.297Z,74.76
2023-02-15T01:09:21.261Z,74.60
2023-02-15T01:10:21.276Z,74.70
2023-02-15T01:11:21.261Z,74.79
2023-02-15T01:12:21.243Z,74.67
2023-02-15T01:13:21.212Z,74.44
2023-02-15T01:14:21.236Z,74.44
2023-02-15T01:15:21.197Z,74.51
2023-02-15T01:16:21.284Z,74.63
2023-02-15T01:17:21.188Z,74.54
2023-02-15T01:18:21.181Z,74.36
2023-02-15T01:19:21.176Z,74.18
2023-02-15T01:20:21.148Z,74.27
2023-02-15T01:21:21.146Z,74.33
2023-02-15T01:22:21.129Z,74.07
2023-02-15T01:23:21.093Z,73.88
2023-02-15T01:24:21.078Z,73.86
2023-02-15T01:25:21.071Z,73.88
2023-02-15T01:26:21.098Z,73.85
2023-02-15T01:27:21.043Z,73.91
2023-02-15T01:28:21.077Z,73.84
2023-02-15T01:29:21.016Z,73.86
2023-02-15T01:30:21.051Z,73.99
2023-02-15T01:31:21.171Z,74.12
2023-02-15T01:32:20.993Z,74.29
2023-02-15T01:33:20.963Z,74.46
2023-02-15T01:34:20.990Z,74.49
2023-02-15T01:35:20.938Z,74.46
2023-02-15T01:36:20.949Z,74.17
2023-02-15T01:37:20.939Z,74.13
2023-02-15T01:38:20.906Z,74.06
2023-02-15T01:39:20.892Z,74.02
2023-02-15T01:40:20.875Z,74.01
2023-02-15T01:41:20.889Z,73.97
2023-02-15T01:42:20.866Z,74.30
2023-02-15T01:43:20.853Z,74.45
2023-02-15T01:44:20.848Z,74.51
2023-02-15T01:45:20.824Z,74.51
2023-02-15T01:46:20.822Z,74.43
2023-02-15T01:47:20.818Z,74.32
2023-02-15T01:48:20.774Z,74.40
2023-02-15T01:49:20.770Z,74.33
2023-02-15T01:50:20.771Z,74.28
2023-02-15T01:51:20.733Z,74.46
2023-02-15T01:52:20.725Z,74.60
2023-02-15T01:53:20.737Z,74.50
2023-02-15T01:54:20.708Z,74.34
2023-02-15T01:55:20.699Z,74.26
2023-02-15T01:56:20.673Z,74.30
2023-02-15T01:57:20.665Z,74.51
2023-02-15T01:58:20.655Z,74.58
2023-02-15T01:59:20.637Z,74.66
2023-02-15T02:00:20.643Z,74.79
2023-02-15T02:01:20.664Z,74.75
2023-02-15T02:02:20.629Z,74.64
2023-02-15T02:03:20.575Z,74.81
2023-02-15T02:04:20.564Z,74.88
2023-02-15T02:05:20.569Z,74.73
2023-02-15T02:06:20.545Z,74.66
2023-02-15T02:07:20.571Z,74.59
2023-02-15T02:08:20.532Z,74.73
2023-02-15T02:09:20.498Z,74.50
2023-02-15T02:10:20.505Z,74.26
2023-02-15T02:11:20.475Z,74.10
2023-02-15T02:12:20.502Z,74.20
2023-02-15T02:13:20.450Z,74.47
2023-02-15T02:14:20.465Z,74.51
2023-02-15T02:15:20.442Z,74.20
2023-02-15T02:16:20.480Z,73.68
2023-02-15T02:17:20.424Z,73.57
2023-02-15T02:18:20.414Z,73.33
2023-02-15T02:19:20.384Z,73.18
2023-02-15T02:20:20.377Z,72.98
2023-02-15T02:21:20.347Z,72.90
2023-02-15T02:22:20.362Z,73.06
2023-02-15T02:23:20.356Z,73.07
2023-02-15T02:24:20.363Z,73.40
2023-02-15T02:25:20.335Z,73.68
2023-02-15T02:26:20.315Z,73.75
2023-02-15T02:27:20.282Z,74.11
2023-02-15T02:28:20.274Z,74.31
2023-02-15T02:29:20.267Z,74.49
2023-02-15T02:30:20.357Z,74.40
2023-02-15T02:31:20.333Z,74.33
2023-02-15T02:32:20.237Z,74.39
2023-02-15T02:33:20.203Z,74.40
2023-02-15T02:34:20.211Z,74.34
2023-02-15T02:35:20.191Z,74.21
2023-02-15T02:36:20.177Z,74.19
2023-02-15T02:37:20.152Z,74.12
2023-02-15T02:38:20.136Z,74.26
2023-02-15T02:39:20.129Z,74.07
2023-02-15T02:40:20.134Z,73.82
2023-02-15T02:41:20.090Z,73.59
2023-02-15T02:42:20.105Z,73.30
2023-02-15T02:43:20.103Z,73.10
2023-02-15T02:44:20.081Z,73.07
2023-02-15T02:45:20.092Z,73.18
2023-02-15T02:46:20.056Z,73.40
2023-02-15T02:47:20.023Z,73.55
2023-02-15T02:48:20.011Z,73.60
2023-02-15T02:49:20.012Z,73.58
2023-02-15T02:50:20.005Z,73.39
2023-02-15T02:51:19.969Z,73.32
2023-02-15T02:52:19.991Z,73.35
2023-02-15T02:53:19.949Z,73.64
2023-02-15T02:54:19.931Z,74.03
2023-02-15T02:55:19.940Z,74.10
2023-02-15T02:56:19.905Z,74.16
2023-02-15T02:57:19.918Z,74.01
2023-02-15T02:58:19.895Z,73.90
2023-02-15T02:59:19.901Z,73.92
2023-02-15T03:00:19.872Z,73.96
2023-02-15T03:01:19.897Z,74.06
2023-02-15T03:02:19.844Z,74.26
2023-02-15T03:03:19.840Z,74.31
2023-02-15T03:04:19.837Z,74.38
2023-02-15T03:05:19.799Z,74.45
2023-02-15T03:06:19.798Z,74.39
2023-02-15T03:07:19.775Z,74.38
2023-02-15T03:08:19.759Z,74.27
2023-02-15T03:09:19.791Z,74.06
2023-02-15T03:10:19.762Z,74.00
2023-02-15T03:11:19.725Z,73.85
2023-02-15T03:12:19.731Z,73.61
2023-02-15T03:13:19.689Z,73.42
2023-02-15T03:14:19.683Z,73.38
2023-02-15T03:15:19.706Z,73.42
2023-02-15T03:16:19.689Z,73.54
2023-02-15T03:17:19.654Z,73.67
2023-02-15T03:18:19.648Z,73.53
2023-02-15T03:19:19.633Z,73.68
2023-02-15T03:20:19.607Z,73.84
2023-02-15T03:21:19.599Z,73.97
2023-02-15T03:22:19.592Z,73.84
2023-02-15T03:23:19.580Z,73.66
2023-02-15T03:24:19.576Z,73.71
2023-02-15T03:25:19.545Z,73.93
2023-02-15T03:26:19.549Z,74.09
2023-02-15T03:27:19.516Z,74.38
2023-02-15T03:28:19.558Z,74.68
2023-02-15T03:29:19.493Z,74.84
2023-02-15T03:30:19.626Z,74.98
2023-02-15T03:31:19.609Z,74.91
2023-02-15T03:32:19.593Z,74.89
2023-02-15T03:33:19.475Z,74.93
2023-02-15T03:34:19.467Z,74.90
2023-02-15T03:35:19.417Z,75.06
2023-02-15T03:36:19.449Z,75.28
2023-02-15T03:37:19.402Z,75.49
2023-02-15T03:38:19.383Z,75.39
2023-02-15T03:39:19.384Z,75.40
2023-02-15T03:40:19.377Z,75.46
2023-02-15T03:41:19.346Z,75.38
2023-02-15T03:42:19.351Z,75.32
2023-02-15T03:43:19.321Z,75.34
2023-02-15T03:44:19.318Z,75.27
2023-02-15T03:45:19.325Z,75.15
2023-02-15T03:46:19.322Z,75.02
2023-02-15T03:47:19.286Z,74.97
2023-02-15T03:48:19.262Z,74.94
2023-02-15T03:49:19.258Z,74.88
2023-02-15T03:50:19.248Z,74.96
2023-02-15T03:51:19.250Z,75.06
2023-02-15T03:52:19.219Z,74.97
2023-02-15T03:53:21.819Z,74.87
2023-02-15T03:54:19.190Z,74.81
2023-02-15T03:55:19.189Z,74.58
2023-02-15T03:56:19.189Z,74.38
2023-02-15T03:57:19.139Z,74.20
2023-02-15T03:58:19.152Z,74.23
2023-02-15T03:59:19.138Z,74.15
2023-02-15T04:00:19.107Z,73.89
2023-02-15T04:01:19.237Z,73.92
2023-02-15T04:02:19.077Z,73.91
2023-02-15T04:03:19.108Z,73.93
2023-02-15T04:04:19.062Z,73.98
2023-02-15T04:05:19.049Z,74.02
2023-02-15T04:06:19.025Z,73.94
2023-02-15T04:07:19.020Z,73.88
2023-02-15T04:08:19.010Z,73.83
2023-02-15T04:09:19.014Z,73.97
2023-02-15T04:10:18.991Z,73.73
2023-02-15T04:11:18.980Z,73.70
2023-02-15T04:12:18.958Z,73.49
2023-02-15T04:13:18.940Z,73.35
2023-02-15T04:14:18.941Z,73.43
2023-02-15T04:15:18.918Z,73.55
2023-02-15T04:16:18.928Z,73.54
2023-02-15T04:17:25.615Z,73.56
2023-02-15T04:18:18.899Z,73.52
2023-02-15T04:19:18.883Z,73.60
2023-02-15T04:20:18.946Z,73.62
2023-02-15T04:21:18.871Z,73.72
2023-02-15T04:22:18.835Z,73.70
2023-02-15T04:23:18.883Z,73.67
2023-02-15T04:24:18.809Z,73.61
2023-02-15T04:25:18.791Z,73.54
2023-02-15T04:26:18.793Z,73.33
2023-02-15T04:27:18.886Z,73.44
2023-02-15T04:28:18.795Z,73.58
2023-02-15T04:29:18.842Z,73.92
2023-02-15T04:30:18.971Z,74.12
2023-02-15T04:31:18.784Z,74.34
2023-02-15T04:32:18.712Z,74.55
2023-02-15T04:33:18.750Z,74.70
2023-02-15T04:34:18.718Z,74.80
2023-02-15T04:35:18.657Z,75.08
2023-02-15T04:36:18.850Z,75.27
2023-02-15T04:37:18.714Z,75.41
2023-02-15T04:38:18.664Z,75.49
2023-02-15T04:39:18.616Z,75.84
2023-02-15T04:40:19.690Z,76.01
2023-02-15T04:41:18.619Z,76.05
2023-02-15T04:42:18.577Z,76.04
2023-02-15T04:43:18.593Z,76.17
2023-02-15T04:44:18.573Z,76.33
2023-02-15T04:45:18.551Z,76.32
2023-02-15T04:46:18.577Z,76.41
2023-02-15T04:47:18.555Z,76.30
2023-02-15T04:48:18.513Z,76.08
2023-02-15T04:49:18.495Z,76.06
2023-02-15T04:50:18.462Z,76.13
2023-02-15T04:51:18.469Z,76.06
2023-02-15T04:52:18.827Z,76.03
2023-02-15T04:53:18.446Z,76.05
2023-02-15T04:54:18.412Z,76.06
2023-02-15T04:55:18.416Z,76.24
2023-02-15T04:56:18.400Z,76.22
2023-02-15T04:57:18.394Z,76.17
2023-02-15T04:58:18.370Z,75.96
2023-02-15T04:59:18.412Z,75.97
2023-02-15T05:00:18.344Z,76.07
2023-02-15T05:01:18.392Z,76.08
2023-02-15T05:02:18.305Z,76.26
2023-02-15T05:03:19.672Z,76.42
2023-02-15T05:04:18.397Z,76.52
2023-02-15T05:05:18.283Z,76.70
2023-02-15T05:06:18.265Z,76.88
2023-02-15T05:07:18.269Z,77.11
2023-02-15T05:08:18.242Z,77.19
2023-02-15T05:09:18.240Z,77.20
2023-02-15T05:10:18.238Z,77.04
2023-02-15T05:11:18.210Z,76.98
2023-02-15T05:12:18.194Z,77.01
2023-02-15T05:13:18.186Z,76.96
2023-02-15T05:14:18.149Z,76.83
2023-02-15T05:15:18.145Z,76.74
2023-02-15T05:16:18.193Z,76.70
2023-02-15T05:17:18.175Z,76.70
2023-02-15T05:18:18.127Z,76.72
2023-02-15T05:19:18.152Z,76.66
2023-02-15T05:20:18.102Z,76.65
2023-02-15T05:21:18.144Z,76.70
2023-02-15T05:22:18.066Z,76.80
2023-02-15T05:23:18.034Z,76.79
2023-02-15T05:24:18.041Z,76.75
2023-02-15T05:25:18.299Z,76.57
2023-02-15T05:26:18.048Z,76.39
2023-02-15T05:27:18.028Z,76.07
2023-02-15T05:28:18.058Z,75.97
2023-02-15T05:29:18.008Z,76.13
2023-02-15T05:30:18.064Z,76.28
2023-02-15T05:31:18.345Z,76.47
2023-02-15T05:32:18.116Z,76.62
2023-02-15T05:33:17.957Z,76.47
2023-02-15T05:34:17.952Z,76.49
2023-02-15T05:35:17.964Z,76.43
2023-02-15T05:36:17.903Z,76.45
2023-02-15T05:37:17.918Z,76.47
2023-02-15T05:38:17.879Z,76.44
2023-02-15T05:39:17.875Z,76.54
2023-02-15T05:40:17.830Z,76.71
2023-02-15T05:41:17.838Z,76.73
2023-02-15T05:42:17.827Z,76.73
2023-02-15T05:43:17.804Z,76.78
2023-02-15T05:44:17.809Z,76.77
2023-02-15T05:45:17.768Z,76.62
2023-02-15T05:46:17.927Z,76.39
2023-02-15T05:47:17.762Z,76.15
2023-02-15T05:48:17.774Z,76.01
2023-02-15T05:49:17.723Z,75.96
2023-02-15T05:50:17.731Z,75.97
2023-02-15T05:51:17.727Z,76.09
2023-02-15T05:52:18.260Z,76.02
2023-02-15T05:53:17.696Z,75.81
2023-02-15T05:54:17.713Z,75.83
2023-02-15T05:55:17.794Z,75.92
2023-02-15T05:56:17.649Z,75.96
2023-02-15T05:57:17.623Z,75.92
2023-02-15T05:58:17.601Z,76.07
2023-02-15T05:59:17.591Z,76.22
2023-02-15T06:00:17.597Z,76.45
2023-02-15T06:01:17.587Z,76.58
2023-02-15T06:02:17.595Z,76.79
2023-02-15T06:03:17.619Z,76.94
2023-02-15T06:04:17.533Z,77.08
2023-02-15T06:05:17.556Z,77.15
2023-02-15T06:06:17.533Z,77.12
2023-02-15T06:07:18.275Z,77.10
2023-02-15T06:08:17.499Z,77.02
2023-02-15T06:09:17.455Z,76.96
2023-02-15T06:10:17.483Z,76.93
2023-02-15T06:11:17.480Z,76.71
2023-02-15T06:12:17.445Z,76.46
2023-02-15T06:13:17.418Z,76.42
2023-02-15T06:14:17.426Z,76.34
2023-02-15T06:15:17.400Z,76.33
2023-02-15T06:16:17.418Z,76.34
2023-02-15T06:17:17.384Z,76.44
2023-02-15T06:18:17.371Z,76.58
2023-02-15T06:19:17.347Z,76.44
2023-02-15T06:20:17.334Z,76.20
2023-02-15T06:21:17.318Z,76.06
2023-02-15T06:22:17.331Z,76.02
2023-02-15T06:23:17.312Z,76.18
2023-02-15T06:24:17.311Z,76.34
2023-02-15T06:25:17.340Z,76.36
2023-02-15T06:26:17.273Z,76.44
2023-02-15T06:27:17.282Z,76.60
2023-02-15T06:28:17.234Z,76.69
2023-02-15T06:29:17.208Z,76.80
2023-02-15T06:30:17.262Z,77.00
2023-02-15T06:31:17.274Z,77.08
2023-02-15T06:32:17.216Z,77.11
2023-02-15T06:33:17.169Z,77.02
2023-02-15T06:34:17.160Z,76.91
2023-02-15T06:35:17.149Z,76.75
2023-02-15T06:36:17.121Z,76.65
2023-02-15T06:37:17.173Z,76.34
2023-02-15T06:38:17.097Z,76.01
2023-02-15T06:39:17.080Z,75.72
2023-02-15T06:40:17.077Z,75.65
2023-02-15T06:41:17.099Z,75.84
2023-02-15T06:42:17.041Z,75.76
2023-02-15T06:43:17.641Z,75.65
2023-02-15T06:44:17.080Z,75.72
2023-02-15T06:45:17.051Z,76.02
2023-02-15T06:46:17.046Z,76.27
2023-02-15T06:47:16.988Z,76.31
2023-02-15T06:48:16.969Z,76.38
2023-02-15T06:49:16.982Z,76.32
2023-02-15T06:50:16.968Z,76.42
2023-02-15T06:51:16.999Z,76.39
2023-02-15T06:52:16.941Z,76.33
2023-02-15T06:53:16.925Z,76.11
2023-02-15T06:54:17.055Z,75.94
2023-02-15T06:55:16.906Z,75.82
2023-02-15T06:56:16.884Z,75.80
2023-02-15T06:57:16.884Z,75.89
2023-02-15T06:58:16.853Z,75.98
2023-02-15T06:59:16.915Z,76.03
2023-02-15T07:00:16.842Z,75.97
2023-02-15T07:01:16.883Z,76.01
2023-02-15T07:02:17.618Z,76.03
2023-02-15T07:03:16.871Z,76.07
2023-02-15T07:04:16.768Z,76.17
2023-02-15T07:05:16.821Z,76.14
2023-02-15T07:06:16.754Z,76.21
2023-02-15T07:07:16.753Z,76.14
2023-02-15T07:08:17.700Z,76.10
2023-02-15T07:09:16.704Z,76.20
2023-02-15T07:10:16.721Z,76.31
2023-02-15T07:11:16.712Z,76.31
2023-02-15T07:12:16.671Z,76.36
2023-02-15T07:13:16.677Z,76.41
2023-02-15T07:14:16.650Z,76.50
2023-02-15T07:15:16.906Z,76.50
2023-02-15T07:16:16.674Z,76.50
2023-02-15T07:17:35.081Z,76.51
2023-02-15T07:18:16.604Z,76.59
2023-02-15T07:19:16.572Z,76.61
2023-02-15T07:20:16.721Z,76.63
2023-02-15T07:21:16.575Z,76.68
2023-02-15T07:22:16.554Z,76.54
2023-02-15T07:23:16.564Z,76.35
2023-02-15T07:24:16.545Z,76.20
2023-02-15T07:25:16.514Z,76.12
2023-02-15T07:26:16.534Z,76.02
2023-02-15T07:27:16.481Z,75.80
2023-02-15T07:28:16.483Z,75.62
2023-02-15T07:29:16.462Z,75.46
2023-02-15T07:30:16.623Z,75.39
2023-02-15T07:31:16.472Z,75.10
2023-02-15T07:32:16.515Z,74.80
2023-02-15T07:33:16.408Z,74.73
2023-02-15T07:34:16.405Z,74.80
2023-02-15T07:35:16.377Z,74.89
2023-02-15T07:36:16.365Z,74.81
2023-02-15T07:37:16.414Z,74.74
2023-02-15T07:38:16.371Z,74.53
2023-02-15T07:39:16.341Z,74.36
2023-02-15T07:40:16.322Z,74.42
2023-02-15T07:41:16.347Z,74.55
2023-02-15T07:42:16.291Z,74.55
2023-02-15T07:43:16.277Z,74.60
2023-02-15T07:44:16.272Z,74.51
2023-02-15T07:45:16.289Z,74.49
2023-02-15T07:46:16.395Z,74.51
2023-02-15T07:47:16.298Z,74.13
2023-02-15T07:48:16.286Z,73.91
2023-02-15T07:49:16.206Z,73.88
2023-02-15T07:50:16.214Z,73.77
2023-02-15T07:51:16.197Z,73.77
2023-02-15T07:52:16.168Z,74.06
2023-02-15T07:53:16.173Z,74.20
2023-02-15T07:54:16.159Z,74.27
2023-02-15T07:55:16.133Z,74.28
2023-02-15T07:56:16.154Z,74.20
2023-02-15T07:57:16.112Z,73.99
2023-02-15T07:58:16.150Z,73.82
2023-02-15T07:59:16.075Z,73.80
2023-02-15T08:00:16.132Z,73.73
2023-02-15T08:01:16.050Z,73.66
2023-02-15T08:02:18.364Z,73.72
2023-02-15T08:03:16.290Z,73.74
2023-02-15T08:04:16.005Z,73.78
2023-02-15T08:05:16.018Z,73.79
2023-02-15T08:06:15.989Z,73.73
2023-02-15T08:07:16.005Z,73.80
2023-02-15T08:08:15.983Z,73.88
2023-02-15T08:09:15.961Z,73.90
2023-02-15T08:10:15.942Z,73.90
2023-02-15T08:11:15.933Z,73.74
2023-02-15T08:12:15.914Z,73.48
2023-02-15T08:13:15.893Z,73.29
2023-02-15T08:14:15.908Z,73.15
2023-02-15T08:15:15.874Z,73.08
2023-02-15T08:16:16.010Z,73.10
2023-02-15T08:17:15.843Z,73.27
2023-02-15T08:18:15.862Z,73.28
2023-02-15T08:19:15.859Z,73.32
2023-02-15T08:20:15.833Z,73.50
2023-02-15T08:21:15.799Z,73.65
2023-02-15T08:22:15.814Z,73.79
2023-02-15T08:23:15.779Z,73.92
2023-02-15T08:24:15.779Z,74.14
2023-02-15T08:25:15.805Z,74.20
2023-02-15T08:26:15.741Z,74.30
2023-02-15T08:27:15.724Z,74.10
2023-02-15T08:28:15.759Z,73.94
2023-02-15T08:29:15.707Z,74.00
2023-02-15T08:30:15.746Z,74.05
2023-02-15T08:31:15.831Z,73.98
2023-02-15T08:32:15.760Z,73.79
2023-02-15T08:33:15.658Z,73.79
2023-02-15T08:34:15.643Z,73.72
2023-02-15T08:35:15.644Z,73.69
2023-02-15T08:36:15.632Z,73.66
2023-02-15T08:37:15.604Z,73.51
2023-02-15T08:38:15.585Z,73.22
2023-02-15T08:39:15.567Z,73.10
2023-02-15T08:40:15.563Z,73.00
2023-02-15T08:41:15.541Z,72.96
2023-02-15T08:42:15.563Z,73.02
2023-02-15T08:43:15.536Z,73.05
2023-02-15T08:44:15.509Z,73.11
2023-02-15T08:45:15.513Z,73.23
2023-02-15T08:46:15.557Z,73.32
2023-02-15T08:47:15.485Z,73.39
2023-02-15T08:48:15.471Z,73.50
2023-02-15T08:49:15.446Z,73.52
2023-02-15T08:50:15.470Z,73.52
2023-02-15T08:51:15.424Z,73.55
2023-02-15T08:52:15.404Z,73.51
2023-02-15T08:53:16.867Z,73.57
2023-02-15T08:54:15.420Z,73.60
2023-02-15T08:55:15.584Z,73.53
2023-02-15T08:56:15.371Z,73.25
2023-02-15T08:57:15.336Z,73.14
2023-02-15T08:58:15.348Z,72.90
2023-02-15T08:59:15.335Z,72.74
2023-02-15T09:00:15.338Z,72.70
2023-02-15T09:01:15.382Z,72.62
2023-02-15T09:02:15.347Z,72.55
2023-02-15T09:03:15.277Z,72.55
2023-02-15T09:04:15.264Z,72.66
2023-02-15T09:05:15.246Z,72.76
2023-02-15T09:06:15.253Z,72.65
2023-02-15T09:07:15.235Z,72.70
2023-02-15T09:08:15.218Z,72.85
2023-02-15T09:09:15.221Z,72.82
2023-02-15T09:10:15.192Z,72.81
2023-02-15T09:11:15.154Z,72.79
2023-02-15T09:12:15.156Z,72.81
2023-02-15T09:13:15.159Z,72.84
2023-02-15T09:14:15.119Z,72.88
2023-02-15T09:15:15.120Z,72.93
2023-02-15T09:16:15.156Z,72.88
2023-02-15T09:17:16.170Z,72.91
2023-02-15T09:18:15.065Z,72.95
2023-02-15T09:19:15.080Z,72.97
2023-02-15T09:20:15.061Z,72.87
2023-02-15T09:21:15.054Z,72.66
2023-02-15T09:22:15.032Z,72.45
2023-02-15T09:23:25.471Z,72.39
2023-02-15T09:24:15.032Z,72.39
2023-02-15T09:25:14.985Z,72.30
2023-02-15T09:26:14.980Z,72.40
2023-02-15T09:27:14.948Z,72.51
2023-02-15T09:28:14.933Z,72.62
2023-02-15T09:29:14.919Z,72.62
2023-02-15T09:30:14.960Z,72.65
2023-02-15T09:31:15.022Z,72.62
2023-02-15T09:32:14.963Z,72.52
2023-02-15T09:33:14.894Z,72.49
2023-02-15T09:34:14.910Z,72.51
2023-02-15T09:35:14.886Z,72.46
2023-02-15T09:36:14.834Z,72.29
2023-02-15T09:37:14.836Z,72.33
2023-02-15T09:38:14.815Z,72.38
2023-02-15T09:39:14.812Z,72.45
2023-02-15T09:40:14.820Z,72.49
2023-02-15T09:41:14.790Z,72.60
2023-02-15T09:42:14.763Z,72.58
2023-02-15T09:43:14.746Z,72.58
2023-02-15T09:44:14.780Z,72.56
2023-02-15T09:45:15.277Z,72.43
2023-02-15T09:46:14.766Z,72.36
2023-02-15T09:47:14.705Z,72.48
2023-02-15T09:48:14.715Z,72.54
2023-02-15T09:49:14.665Z,72.47
2023-02-15T09:50:14.675Z,72.42
2023-02-15T09:51:14.654Z,72.33
2023-02-15T09:52:14.633Z,72.31
2023-02-15T09:53:14.659Z,72.37
2023-02-15T09:54:14.611Z,72.43
2023-02-15T09:55:14.603Z,72.47
2023-02-15T09:56:14.599Z,72.38
2023-02-15T09:57:14.586Z,72.33
2023-02-15T09:58:14.559Z,72.36
2023-02-15T09:59:14.553Z,72.33
2023-02-15T10:00:14.581Z,72.37
2023-02-15T10:01:14.562Z,72.34
2023-02-15T10:02:14.534Z,72.30
2023-02-15T10:03:14.491Z,72.15
2023-02-15T10:04:14.503Z,72.08
2023-02-15T10:05:14.481Z,72.05
2023-02-15T10:06:14.464Z,72.05
2023-02-15T10:07:14.474Z,72.01
2023-02-15T10:08:14.449Z,72.02
2023-02-15T10:09:14.447Z,72.01
2023-02-15T10:10:14.433Z,72.05
2023-02-15T10:11:14.394Z,71.97
2023-02-15T10:12:14.455Z,71.97
2023-02-15T10:13:14.381Z,71.96
2023-02-15T10:14:14.366Z,71.92
2023-02-15T10:15:14.366Z,71.90
2023-02-15T10:16:14.360Z,71.89
2023-02-15T10:17:20.881Z,71.77
2023-02-15T10:18:14.348Z,71.51
2023-02-15T10:19:14.287Z,71.41
2023-02-15T10:20:14.306Z,71.39
2023-02-15T10:21:14.268Z,71.46
2023-02-15T10:22:14.283Z,71.48
2023-02-15T10:23:14.257Z,71.47
2023-02-15T10:24:14.226Z,71.51
2023-02-15T10:25:14.222Z,71.52
2023-02-15T10:26:14.218Z,71.54
2023-02-15T10:27:14.234Z,71.58
2023-02-15T10:28:14.190Z,71.58
2023-02-15T10:29:14.173Z,71.58
2023-02-15T10:30:14.235Z,71.56
2023-02-15T10:31:14.333Z,71.59
2023-02-15T10:32:14.286Z,71.53
2023-02-15T10:33:14.129Z,71.52
2023-02-15T10:34:14.115Z,71.50
2023-02-15T10:35:14.083Z,71.47
2023-02-15T10:36:14.076Z,71.42
2023-02-15T10:37:14.111Z,71.35
2023-02-15T10:38:14.053Z,71.20
2023-02-15T10:39:14.038Z,71.13
2023-02-15T10:40:14.040Z,71.05
2023-02-15T10:41:14.021Z,71.00
2023-02-15T10:42:13.997Z,70.92
2023-02-15T10:43:13.994Z,70.86
2023-02-15T10:44:13.999Z,70.72
2023-02-15T10:45:13.960Z,70.70
2023-02-15T10:46:14.042Z,70.68
2023-02-15T10:47:13.965Z,70.67
2023-02-15T10:48:13.962Z,70.69
2023-02-15T10:49:13.912Z,70.66
2023-02-15T10:50:13.923Z,70.65
2023-02-15T10:51:13.876Z,70.51
2023-02-15T10:52:13.882Z,70.41
2023-02-15T10:53:13.905Z,70.37
2023-02-15T10:54:13.850Z,70.35
2023-02-15T10:55:13.838Z,70.32
2023-02-15T10:56:13.832Z,70.32
2023-02-15T10:57:13.849Z,70.26
2023-02-15T10:58:13.846Z,70.33
2023-02-15T10:59:13.789Z,70.36
2023-02-15T11:00:13.868Z,70.35
2023-02-15T11:01:13.860Z,70.26
2023-02-15T11:02:13.743Z,70.24
2023-02-15T11:03:13.845Z,70.22
2023-02-15T11:04:13.996Z,70.17
2023-02-15T11:05:13.848Z,70.17
2023-02-15T11:06:13.785Z,70.20
2023-02-15T11:07:13.718Z,70.21
2023-02-15T11:08:13.783Z,70.22
2023-02-15T11:09:13.659Z,70.22
2023-02-15T11:10:13.668Z,70.14
2023-02-15T11:11:13.781Z,69.79
2023-02-15T11:12:13.745Z,69.66
2023-02-15T11:13:13.791Z,69.72
2023-02-15T11:14:13.737Z,69.74
2023-02-15T11:15:13.578Z,69.74
2023-02-15T11:16:13.652Z,69.73
2023-02-15T11:17:13.665Z,69.75
2023-02-15T11:18:13.566Z,69.85
2023-02-15T11:19:13.555Z,69.86
2023-02-15T11:20:13.523Z,69.87
2023-02-15T11:21:13.530Z,69.91
2023-02-15T11:22:13.531Z,69.92
2023-02-15T11:23:13.475Z,69.95
2023-02-15T11:24:13.460Z,69.95
2023-02-15T11:25:13.461Z,69.95
2023-02-15T11:26:13.529Z,69.94
2023-02-15T11:27:13.512Z,69.89
2023-02-15T11:28:13.414Z,69.88
2023-02-15T11:29:13.395Z,69.88
2023-02-15T11:30:13.469Z,69.95
2023-02-15T11:31:13.535Z,70.01
2023-02-15T11:32:13.686Z,70.04
2023-02-15T11:33:13.356Z,70.06
2023-02-15T11:34:13.361Z,70.05
2023-02-15T11:35:13.388Z,70.05
2023-02-15T11:36:13.333Z,70.05
2023-02-15T11:37:13.338Z,69.94
2023-02-15T11:38:13.288Z,69.78
2023-02-15T11:39:13.282Z,69.58
2023-02-15T11:40:13.266Z,69.42
2023-02-15T11:41:14.136Z,69.22
2023-02-15T11:42:13.271Z,69.07
2023-02-15T11:43:13.320Z,68.76
2023-02-15T11:44:13.213Z,68.56
2023-02-15T11:45:13.238Z,68.24
2023-02-15T11:46:13.221Z,68.09
2023-02-15T11:47:13.184Z,67.96
2023-02-15T11:48:13.184Z,67.76
2023-02-15T11:49:13.150Z,67.56
2023-02-15T11:50:13.147Z,67.42
2023-02-15T11:51:13.142Z,67.42
2023-02-15T11:52:13.115Z,67.44
2023-02-15T11:53:13.152Z,67.61
2023-02-15T11:54:13.113Z,67.00
2023-02-15T11:55:13.065Z,66.62
2023-02-15T11:56:13.054Z,66.10
2023-02-15T11:57:13.045Z,65.98
2023-02-15T11:58:13.039Z,65.99
2023-02-15T11:59:13.026Z,66.04
2023-02-15T12:00:15.094Z,66.14
2023-02-15T12:03:24.901Z,66.11
2023-02-15T12:04:25.902Z,66.23
2023-02-15T12:05:25.872Z,66.36
2023-02-15T12:06:25.852Z,66.48
2023-02-15T12:07:25.832Z,66.54
2023-02-15T12:08:25.838Z,66.09
2023-02-15T12:09:25.875Z,65.98
2023-02-15T12:10:25.885Z,65.88
2023-02-15T12:11:25.785Z,65.43
2023-02-15T12:12:25.787Z,65.52
2023-02-15T12:13:26.101Z,65.63
2023-02-15T12:14:25.749Z,65.70
2023-02-15T12:15:25.749Z,65.80
2023-02-15T12:16:25.809Z,65.56
2023-02-15T12:17:25.728Z,65.66
2023-02-15T12:18:25.737Z,65.46
2023-02-15T12:19:25.676Z,64.59
2023-02-15T12:20:25.686Z,64.70
2023-02-15T12:21:27.559Z,64.29
2023-02-15T12:22:25.652Z,63.72
2023-02-15T12:23:25.627Z,63.64
2023-02-15T12:24:25.623Z,63.84
2023-02-15T12:25:25.611Z,63.97
2023-02-15T12:26:25.600Z,64.01
2023-02-15T12:27:25.585Z,64.05
2023-02-15T12:28:25.561Z,64.09
2023-02-15T12:29:25.551Z,63.96
2023-02-15T12:30:25.593Z,63.99
2023-02-15T12:31:25.604Z,64.05
2023-02-15T12:32:25.592Z,64.14
2023-02-15T12:33:25.497Z,63.78
2023-02-15T12:34:25.507Z,63.64
2023-02-15T12:35:25.473Z,63.61
2023-02-15T12:36:25.472Z,63.57
2023-02-15T12:37:25.450Z,62.38
2023-02-15T12:38:25.444Z,61.63
2023-02-15T12:39:25.430Z,61.64
2023-02-15T12:40:25.435Z,61.93
2023-02-15T12:41:25.429Z,62.16
2023-02-15T12:42:25.422Z,62.23
2023-02-15T12:43:25.359Z,62.03
2023-02-15T12:44:25.346Z,61.85
2023-02-15T12:45:25.358Z,61.10
2023-02-15T12:46:25.405Z,60.71
2023-02-15T12:47:28.982Z,60.15
2023-02-15T12:48:25.330Z,59.58
2023-02-15T12:49:25.302Z,59.31
2023-02-15T12:50:25.272Z,59.23
2023-02-15T12:51:25.252Z,59.03
2023-02-15T12:52:25.284Z,58.42
2023-02-15T12:53:25.239Z,58.07
2023-02-15T12:54:25.222Z,58.60